Time;durP1;ratioP1;P1;durP2;ratioP2;P2;SDS_P1;SDS_P2;PMS_P1;PMS_P2;Temp;Humidity;BMP_temperature;BMP_pressure;BME280_temperature;BME280_humidity;BME280_pressure;Samples;Min_cycle;Max_cycle;Signal;HPM_P1;HPM_P2
2023/08/03 00:00:34;;;;;;;10.15;3.13;;;;;;;18.06;89.86;96682.66;5002615;28;20058;-79
2023/08/03 00:03:00;;;;;;;8.45;3.30;;;;;;;18.04;89.65;96674.81;4973940;28;20094;-79
2023/08/03 00:05:25;;;;;;;8.80;3.10;;;;;;;18.15;88.58;96707.94;4994197;28;20100;-79
2023/08/03 00:07:51;;;;;;;8.38;3.08;;;;;;;18.15;87.03;96706.03;4981133;28;20505;-79
2023/08/03 00:10:18;;;;;;;7.47;3.08;;;;;;;18.25;87.16;96707.56;4993800;28;20034;-79
2023/08/03 00:12:44;;;;;;;8.88;3.28;;;;;;;18.16;86.11;96714.97;5008540;28;20465;-78
2023/08/03 00:15:10;;;;;;;9.02;3.78;;;;;;;18.03;85.67;96694.22;4987192;28;20123;-79
2023/08/03 00:17:37;;;;;;;15.07;3.45;;;;;;;18.20;85.20;96721.38;4989217;28;20022;-79
2023/08/03 00:20:04;;;;;;;9.27;3.10;;;;;;;18.08;84.98;96718.56;4993338;28;20038;-79
2023/08/03 00:22:30;;;;;;;8.32;3.10;;;;;;;18.04;85.06;96690.38;4990239;28;20032;-78
2023/08/03 00:24:55;;;;;;;9.18;3.50;;;;;;;18.19;85.02;96725.22;4985777;28;20030;-78
2023/08/03 00:27:21;;;;;;;12.23;3.25;;;;;;;18.08;84.89;96707.66;5015416;28;20018;-79
2023/08/03 00:29:46;;;;;;;12.85;3.22;;;;;;;17.91;85.39;96679.38;5002541;28;20756;-78
2023/08/03 00:32:12;;;;;;;8.25;3.08;;;;;;;18.12;85.15;96722.22;4988312;28;20026;-78
2023/08/03 00:34:37;;;;;;;8.43;3.10;;;;;;;18.12;85.01;96711.31;5008994;28;20502;-79
2023/08/03 00:37:03;;;;;;;9.07;3.70;;;;;;;18.04;85.20;96707.50;5005842;28;20520;-79
2023/08/03 00:39:29;;;;;;;8.32;3.70;;;;;;;18.14;85.27;96722.69;4982145;28;20085;-78
2023/08/03 00:41:55;;;;;;;12.20;3.70;;;;;;;18.00;85.37;96711.22;4990460;28;20109;-78
2023/08/03 00:44:20;;;;;;;8.27;3.08;;;;;;;17.95;85.48;96726.63;4982052;28;20479;-77
2023/08/03 00:46:46;;;;;;;8.82;3.38;;;;;;;17.85;85.12;96710.63;5007464;28;20022;-78
2023/08/03 00:49:11;;;;;;;9.88;2.88;;;;;;;17.98;84.83;96718.91;4979005;28;20031;-78
2023/08/03 00:51:37;;;;;;;9.02;3.13;;;;;;;17.93;83.39;96712.53;4972914;28;20032;-79
2023/08/03 00:54:06;;;;;;;7.35;2.50;;;;;;;18.16;82.25;96736.78;4961530;28;20038;-78
2023/08/03 00:56:34;;;;;;;5.95;2.80;;;;;;;17.88;82.43;96684.66;4975473;28;20038;-78
2023/08/03 00:59:00;;;;;;;9.75;2.88;;;;;;;18.08;81.97;96713.09;4975413;28;20047;-78
2023/08/03 01:01:26;;;;;;;8.75;2.97;;;;;;;18.10;81.71;96711.66;4997325;28;20102;-79
2023/08/03 01:03:54;;;;;;;11.57;2.90;;;;;;;18.00;81.97;96697.59;4985606;28;20068;-79
2023/08/03 01:06:21;;;;;;;8.13;3.40;;;;;;;18.07;82.39;96712.31;4988103;28;20046;-78
2023/08/03 01:08:46;;;;;;;12.13;3.17;;;;;;;18.00;82.68;96700.31;4992169;28;20029;-79
2023/08/03 01:11:12;;;;;;;8.13;3.00;;;;;;;18.12;82.95;96719.50;4986903;28;20038;-77
2023/08/03 01:13:37;;;;;;;10.85;3.38;;;;;;;18.11;83.46;96723.34;4994226;28;20049;-78
2023/08/03 01:16:03;;;;;;;9.43;3.38;;;;;;;18.01;83.86;96705.47;4959996;28;20146;-78
2023/08/03 01:18:28;;;;;;;10.70;3.30;;;;;;;18.10;84.02;96727.19;5002340;28;20027;-79
2023/08/03 01:20:55;;;;;;;10.80;3.40;;;;;;;17.91;84.25;96693.00;4969616;28;20038;-79
2023/08/03 01:23:20;;;;;;;9.27;3.72;;;;;;;18.03;85.14;96702.38;4959883;28;20049;-79
2023/08/03 01:25:46;;;;;;;13.43;3.97;;;;;;;18.12;84.83;96725.75;4995555;28;20033;-77
2023/08/03 01:28:11;;;;;;;9.85;3.70;;;;;;;17.98;85.61;96718.91;4981129;28;20388;-77
2023/08/03 01:30:36;;;;;;;8.85;3.33;;;;;;;17.95;85.66;96704.84;4985792;28;20050;-78
2023/08/03 01:33:02;;;;;;;8.85;3.13;;;;;;;17.79;85.65;96694.81;4993204;28;20030;-79
2023/08/03 01:35:27;;;;;;;11.98;3.67;;;;;;;17.92;85.50;96732.72;4987266;28;20030;-79
2023/08/03 01:37:53;;;;;;;12.73;3.88;;;;;;;17.34;85.19;96640.03;4983992;28;20424;-79
2023/08/03 01:40:20;;;;;;;7.18;2.90;;;;;;;18.00;84.66;96728.38;4967013;28;20077;-78
2023/08/03 01:42:45;;;;;;;9.63;3.05;;;;;;;17.92;84.34;96721.03;5001371;28;20030;-77
2023/08/03 01:45:11;;;;;;;9.02;3.55;;;;;;;17.91;83.85;96714.78;4990744;28;20036;-77
2023/08/03 01:47:37;;;;;;;9.52;3.10;;;;;;;17.82;83.82;96710.50;4987763;28;20018;-79
2023/08/03 01:50:02;;;;;;;8.40;3.20;;;;;;;17.77;83.11;96692.41;5002753;28;20038;-77
2023/08/03 01:52:27;;;;;;;11.07;3.33;;;;;;;17.80;83.06;96694.50;4975315;28;20382;-78
2023/08/03 01:54:53;;;;;;;9.20;2.67;;;;;;;17.83;83.71;96707.44;4957431;28;20145;-78
2023/08/03 01:57:18;;;;;;;10.70;2.75;;;;;;;17.76;81.30;96690.03;5002884;28;20041;-77
2023/08/03 01:59:44;;;;;;;10.95;2.65;;;;;;;18.05;81.49;96735.56;4975935;28;20038;-78
2023/08/03 02:02:10;;;;;;;6.30;2.55;;;;;;;17.75;81.60;96705.56;4963914;28;20113;-78
2023/08/03 02:04:36;;;;;;;9.32;3.22;;;;;;;18.01;81.26;96740.88;4984816;28;20030;-78
2023/08/03 02:07:11;;;;;;;10.20;2.50;;;;;;;18.05;80.25;96743.72;4991361;28;20034;-77
2023/08/03 02:09:37;;;;;;;7.72;3.00;;;;;;;17.84;80.25;96708.25;4974396;28;20784;-76
2023/08/03 02:12:02;;;;;;;10.40;2.55;;;;;;;17.92;79.22;96743.63;5001183;28;20104;-78
2023/08/03 02:14:28;;;;;;;9.55;2.83;;;;;;;17.85;78.28;96726.97;4986213;28;20038;-77
2023/08/03 02:16:53;;;;;;;10.68;2.75;;;;;;;18.08;78.21;96734.91;4971951;28;20034;-77
2023/08/03 02:19:18;;;;;;;12.65;2.95;;;;;;;18.04;77.27;96750.31;4997304;28;20038;-77
2023/08/03 02:21:44;;;;;;;5.03;2.60;;;;;;;17.85;76.53;96715.31;4968490;28;20068;-77
2023/08/03 02:24:09;;;;;;;11.85;2.50;;;;;;;17.91;76.47;96728.41;4986665;28;20045;-76
2023/08/03 02:26:35;;;;;;;8.02;2.38;;;;;;;18.04;76.27;96736.69;4961992;28;20032;-77
2023/08/03 02:29:00;;;;;;;11.50;2.70;;;;;;;17.94;76.82;96735.94;4995151;28;20535;-77
2023/08/03 02:31:26;;;;;;;7.88;2.20;;;;;;;17.86;76.27;96706.00;4987710;28;20110;-77
2023/08/03 02:33:51;;;;;;;9.27;2.72;;;;;;;18.04;76.61;96747.59;4997882;28;20500;-77
2023/08/03 02:36:23;;;;;;;11.70;2.72;;;;;;;17.90;76.31;96718.63;4971424;28;20025;-77
2023/08/03 02:38:52;;;;;;;8.82;2.30;;;;;;;17.94;76.45;96741.38;4998269;28;20103;-77
2023/08/03 02:41:18;;;;;;;10.52;2.47;;;;;;;18.02;76.44;96747.91;4984774;28;20466;-77
2023/08/03 02:43:44;;;;;;;15.90;3.05;;;;;;;17.79;77.01;96705.69;4985557;28;20444;-77
2023/08/03 02:46:12;;;;;;;8.73;2.90;;;;;;;17.83;77.33;96714.81;4985162;28;20060;-77
2023/08/03 02:48:38;;;;;;;12.07;2.42;;;;;;;17.72;77.57;96700.78;4965137;28;20062;-77
2023/08/03 02:51:04;;;;;;;7.03;2.53;;;;;;;17.87;77.92;96707.59;5006641;28;20500;-76
2023/08/03 02:53:34;;;;;;;5.88;2.42;;;;;;;17.95;77.63;96721.19;4990942;28;20033;-76
2023/08/03 02:56:00;;;;;;;8.23;2.45;;;;;;;17.97;77.44;96728.22;4964490;28;20522;-77
2023/08/03 02:58:31;;;;;;;11.27;2.33;;;;;;;18.10;76.85;96727.19;4960124;28;20481;-76
2023/08/03 03:00:57;;;;;;;6.97;1.90;;;;;;;18.01;76.55;96723.72;4970166;28;20065;-76
2023/08/03 03:03:23;;;;;;;9.93;2.78;;;;;;;18.01;76.33;96710.91;5017168;28;20396;-77
2023/08/03 03:05:48;;;;;;;9.57;2.15;;;;;;;17.88;76.19;96693.66;5001023;28;20034;-77
2023/08/03 03:08:15;;;;;;;6.15;2.22;;;;;;;18.11;76.21;96726.09;4964517;28;20037;-77
2023/08/03 03:10:43;;;;;;;7.90;2.20;;;;;;;18.12;76.20;96730.38;4957718;28;20084;-77
2023/08/03 03:13:08;;;;;;;6.82;2.10;;;;;;;18.12;75.69;96731.19;4980940;28;20030;-78
2023/08/03 03:15:34;;;;;;;6.13;2.33;;;;;;;18.10;74.75;96728.00;4969928;28;20092;-77
2023/08/03 03:18:00;;;;;;;10.98;2.63;;;;;;;18.08;74.09;96721.28;4966434;28;20029;-79
2023/08/03 03:20:26;;;;;;;6.45;2.15;;;;;;;18.23;74.30;96737.06;4992416;28;20106;-78
2023/08/03 03:22:51;;;;;;;9.73;2.38;;;;;;;18.17;73.56;96724.75;4978812;28;20068;-78
2023/08/03 03:25:17;;;;;;;6.90;2.05;;;;;;;18.10;73.99;96702.69;4985535;28;20038;-78
2023/08/03 03:27:42;;;;;;;7.22;2.00;;;;;;;18.14;74.26;96722.69;4984770;28;20029;-78
2023/08/03 03:30:10;;;;;;;10.52;2.40;;;;;;;18.31;73.81;96744.41;4988914;28;20034;-78
2023/08/03 03:32:36;;;;;;;4.20;1.98;;;;;;;18.09;73.72;96725.59;5002430;28;20026;-78
2023/08/03 03:35:03;;;;;;;7.50;2.00;;;;;;;18.17;73.09;96743.84;4977380;28;20378;-77
2023/08/03 03:37:29;;;;;;;7.18;2.00;;;;;;;18.14;72.60;96734.38;4989935;28;20040;-77
2023/08/03 03:39:55;;;;;;;5.68;1.92;;;;;;;18.04;72.94;96718.41;4970528;28;20034;-77
2023/08/03 03:42:29;;;;;;;8.18;2.30;;;;;;;18.10;73.13;96741.63;4970803;28;20029;-77
2023/08/03 03:44:55;;;;;;;8.73;2.35;;;;;;;18.20;73.33;96715.94;4976569;28;20038;-77
2023/08/03 03:47:22;;;;;;;7.00;1.88;;;;;;;18.05;73.26;96730.09;4976236;28;20022;-77
2023/08/03 03:49:50;;;;;;;5.72;2.00;;;;;;;18.03;73.59;96721.47;4990332;28;20041;-78
2023/08/03 03:52:15;;;;;;;8.40;2.00;;;;;;;17.95;72.95;96712.19;4969122;28;20025;-78
2023/08/03 03:54:41;;;;;;;7.18;1.98;;;;;;;18.05;73.39;96730.09;4969491;28;20062;-76
2023/08/03 03:57:07;;;;;;;7.82;2.25;;;;;;;17.93;73.06;96717.97;4988596;28;20484;-79
2023/08/03 03:59:34;;;;;;;9.90;2.00;;;;;;;18.02;73.21;96741.69;4989574;28;20033;-78
2023/08/03 04:01:59;;;;;;;6.88;2.13;;;;;;;17.85;73.30;96734.38;4987228;28;20118;-77
2023/08/03 04:04:24;;;;;;;7.57;1.98;;;;;;;17.81;73.19;96731.50;4982874;28;20048;-78
2023/08/03 04:06:50;;;;;;;5.95;1.90;;;;;;;17.86;73.54;96739.47;4984177;28;20029;-77
2023/08/03 04:09:15;;;;;;;7.38;2.30;;;;;;;17.75;73.93;96724.63;4961891;28;20049;-78
2023/08/03 04:11:41;;;;;;;8.45;2.10;;;;;;;17.63;74.31;96727.22;4990918;28;20025;-77
2023/08/03 04:14:06;;;;;;;6.38;2.10;;;;;;;17.85;74.20;96759.66;4988102;28;20034;-77
2023/08/03 04:16:31;;;;;;;4.57;2.35;;;;;;;17.79;74.15;96732.94;4985874;28;20022;-77
2023/08/03 04:18:57;;;;;;;8.98;2.30;;;;;;;17.79;74.19;96750.09;4990787;28;20546;-78
2023/08/03 04:21:28;;;;;;;6.70;2.10;;;;;;;17.99;74.74;96764.13;4978969;28;20034;-78
2023/08/03 04:23:54;;;;;;;6.30;1.92;;;;;;;17.89;74.96;96760.63;4972074;28;20268;-77
2023/08/03 04:26:20;;;;;;;5.38;2.13;;;;;;;17.87;74.96;96751.19;4967978;28;20074;-77
2023/08/03 04:28:45;;;;;;;9.98;2.50;;;;;;;17.85;75.24;96753.44;4969321;28;20034;-78
2023/08/03 04:31:11;;;;;;;9.15;2.20;;;;;;;17.81;75.83;96753.28;4987460;28;20029;-77
2023/08/03 04:33:40;;;;;;;7.22;2.65;;;;;;;17.86;75.94;96753.09;4979779;28;20045;-77
2023/08/03 04:36:06;;;;;;;9.10;2.30;;;;;;;17.75;75.66;96748.34;4976180;28;20038;-77
2023/08/03 04:38:36;;;;;;;9.55;2.33;;;;;;;17.68;74.74;96748.84;4973734;28;20053;-77
2023/08/03 04:41:02;;;;;;;7.28;1.90;;;;;;;17.79;74.71;96766.41;4984386;28;20034;-77
2023/08/03 04:43:31;;;;;;;8.02;1.90;;;;;;;17.82;74.34;96760.34;5004158;28;20460;-78
2023/08/03 04:45:56;;;;;;;6.05;1.88;;;;;;;17.82;73.86;96764.97;4979972;28;20030;-78
2023/08/03 04:48:22;;;;;;;8.32;2.10;;;;;;;17.85;73.69;96776.00;4996869;28;20053;-78
2023/08/03 04:50:48;;;;;;;6.93;1.98;;;;;;;17.81;72.90;96769.63;4983635;28;20050;-78
2023/08/03 04:53:16;;;;;;;7.68;1.83;;;;;;;17.76;71.42;96772.50;4999906;28;20032;-79
2023/08/03 04:55:43;;;;;;;7.40;2.00;;;;;;;18.00;71.47;96792.94;4990835;28;20050;-79
2023/08/03 04:58:09;;;;;;;8.35;1.83;;;;;;;18.01;70.61;96767.31;4967950;28;20110;-78
2023/08/03 05:00:37;;;;;;;8.52;2.10;;;;;;;18.14;70.73;96799.78;4983922;28;20045;-78
2023/08/03 05:03:03;;;;;;;4.85;1.73;;;;;;;18.01;70.90;96786.38;4982476;28;20045;-79
2023/08/03 05:05:29;;;;;;;8.35;1.88;;;;;;;18.09;70.46;96796.44;4982889;28;20042;-78
2023/08/03 05:07:54;;;;;;;8.18;1.70;;;;;;;18.21;70.23;96804.72;4988993;28;20022;-78
2023/08/03 05:10:25;;;;;;;8.43;2.10;;;;;;;18.26;70.27;96807.28;4981689;28;20034;-79
2023/08/03 05:12:50;;;;;;;6.95;2.03;;;;;;;18.09;70.93;96799.16;4982831;28;20531;-78
2023/08/03 05:15:15;;;;;;;6.32;1.90;;;;;;;18.16;70.43;96807.63;4989466;28;20022;-79
2023/08/03 05:17:55;;;;;;;8.02;1.48;;;;;;;18.03;69.29;96814.09;4971047;28;20118;-78
2023/08/03 05:20:23;;;;;;;5.88;1.73;;;;;;;18.04;70.01;96793.91;4980355;28;20140;-78
2023/08/03 05:22:50;;;;;;;6.15;1.60;;;;;;;17.87;69.70;96784.69;5004391;28;20271;-78
2023/08/03 05:25:15;;;;;;;5.70;1.65;;;;;;;17.93;68.16;96794.25;5009570;28;20034;-78
2023/08/03 05:27:41;;;;;;;5.78;1.50;;;;;;;17.90;68.38;96800.34;4980396;28;20054;-78
2023/08/03 05:30:07;;;;;;;4.18;1.30;;;;;;;18.20;67.31;96827.66;4986461;28;20041;-78
2023/08/03 05:32:32;;;;;;;6.28;1.63;;;;;;;17.94;66.95;96806.75;4985301;28;20030;-79
2023/08/03 05:34:57;;;;;;;7.32;1.80;;;;;;;18.19;66.73;96828.78;4986259;28;20056;-77
2023/08/03 05:37:23;;;;;;;6.00;1.20;;;;;;;18.04;67.43;96812.97;4969009;28;20022;-78
2023/08/03 05:39:48;;;;;;;7.15;1.42;;;;;;;18.23;67.46;96835.16;4990704;28;20134;-78
2023/08/03 05:42:14;;;;;;;5.30;1.60;;;;;;;18.14;66.51;96857.00;4991553;28;20109;-78
2023/08/03 05:44:40;;;;;;;5.28;1.40;;;;;;;18.00;66.65;96817.47;4986567;28;20037;-79
2023/08/03 05:47:09;;;;;;;3.95;1.38;;;;;;;18.28;66.92;96854.88;4998359;28;20388;-78
2023/08/03 05:49:34;;;;;;;6.13;1.30;;;;;;;18.09;68.52;96834.56;4968475;28;20406;-78
2023/08/03 05:56:26;;;;;;;3.95;1.17;;;;;;;17.11;67.26;96747.47;5036184;28;20164;-77
2023/08/03 06:02:42;;;;;;;3.08;1.00;;;;;;;17.63;68.24;96768.06;5001817;28;20110;-79
2023/08/03 06:05:32;;;;;;;5.55;1.30;;;;;;;17.92;68.36;96825.34;4988204;28;20034;-80
2023/08/03 06:07:57;;;;;;;4.07;1.20;;;;;;;18.16;68.34;96856.69;5007430;28;20050;-78
2023/08/03 06:10:23;;;;;;;4.00;1.20;;;;;;;18.07;68.78;96853.19;5011887;28;20385;-80
2023/08/03 06:12:48;;;;;;;4.30;1.40;;;;;;;17.86;68.99;96798.59;4989798;28;20052;-79
2023/08/03 06:15:16;;;;;;;4.00;1.30;;;;;;;18.13;68.38;96857.34;4988669;28;20044;-80
2023/08/03 06:17:41;;;;;;;5.70;1.40;;;;;;;18.12;67.98;96856.53;4990836;28;20038;-79
2023/08/03 06:20:12;;;;;;;5.03;1.25;;;;;;;18.33;68.35;96868.34;4995428;28;20026;-79
2023/08/03 06:22:37;;;;;;;4.32;1.10;;;;;;;18.33;68.54;96872.97;4977859;28;20442;-78
2023/08/03 06:25:06;;;;;;;5.65;1.20;;;;;;;18.14;69.00;96848.03;5004952;28;20030;-80
2023/08/03 06:27:31;;;;;;;6.28;1.60;;;;;;;18.32;67.91;96887.75;5006299;28;20026;-80
2023/08/03 06:29:57;;;;;;;9.10;1.50;;;;;;;18.26;68.01;96867.22;4979637;28;20037;-78
2023/08/03 06:32:25;;;;;;;3.85;1.58;;;;;;;18.04;68.45;96838.28;4994061;28;20049;-80
2023/08/03 06:34:51;;;;;;;5.53;1.38;;;;;;;18.25;68.82;96876.56;4982842;28;20053;-80
2023/08/03 06:37:16;;;;;;;7.30;1.50;;;;;;;18.34;67.56;96882.78;5010100;28;20033;-78
2023/08/03 06:39:42;;;;;;;4.78;1.20;;;;;;;18.30;67.15;96884.53;4988877;28;20055;-80
2023/08/03 06:42:07;;;;;;;4.00;1.20;;;;;;;18.34;67.79;96885.50;5005467;28;20106;-78
2023/08/03 06:44:34;;;;;;;6.53;1.30;;;;;;;18.39;67.09;96885.31;4977721;28;20030;-80
2023/08/03 06:46:59;;;;;;;4.70;1.33;;;;;;;18.41;67.42;96907.59;4994743;28;20128;-80
2023/08/03 06:49:25;;;;;;;8.30;1.80;;;;;;;18.21;67.49;96895.47;4972690;28;20033;-78
2023/08/03 06:51:50;;;;;;;5.00;1.27;;;;;;;18.38;66.87;96898.16;5035598;28;20041;-80
2023/08/03 06:54:16;;;;;;;5.00;1.15;;;;;;;18.50;66.98;96900.22;5018003;28;20072;-80
2023/08/03 06:56:41;;;;;;;5.35;1.38;;;;;;;18.63;67.35;96915.56;5056850;28;20037;-78
2023/08/03 06:59:06;;;;;;;3.60;1.08;;;;;;;18.50;66.52;96872.97;4986867;28;20030;-80
2023/08/03 07:01:32;;;;;;;3.70;1.30;;;;;;;18.64;66.95;96895.34;5013303;28;20487;-79
2023/08/03 07:03:57;;;;;;;4.40;1.20;;;;;;;18.73;65.90;96914.38;5009879;28;20101;-79
2023/08/03 07:06:22;;;;;;;3.45;1.20;;;;;;;18.79;66.17;96900.25;5045857;28;20045;-80
2023/08/03 07:08:48;;;;;;;2.97;1.08;;;;;;;18.69;65.92;96892.44;5051110;28;20017;-80
2023/08/03 07:11:13;;;;;;;3.17;1.10;;;;;;;18.97;65.19;96937.25;4998042;28;20091;-79
2023/08/03 07:13:38;;;;;;;6.30;1.35;;;;;;;18.73;64.93;96911.66;5011581;28;20542;-81
2023/08/03 07:16:08;;;;;;;5.03;1.30;;;;;;;18.90;64.93;96947.06;5023917;28;20068;-80
2023/08/03 07:18:34;;;;;;;5.25;1.02;;;;;;;18.70;64.36;96896.75;5027457;28;20138;-79
2023/08/03 07:21:05;;;;;;;4.13;1.38;;;;;;;19.01;64.77;96943.63;5029811;28;20025;-79
2023/08/03 07:23:31;;;;;;;5.07;1.30;;;;;;;18.50;64.28;96894.75;5011680;28;20064;-81
2023/08/03 07:25:58;;;;;;;4.38;1.30;;;;;;;19.00;65.14;96914.72;4995974;28;20033;-79
2023/08/03 07:28:23;;;;;;;2.80;1.00;;;;;;;19.22;64.72;96917.19;5012102;28;20029;-79
2023/08/03 07:30:48;;;;;;;6.15;1.17;;;;;;;18.95;64.78;96928.56;5023181;28;20498;-80
2023/08/03 07:33:14;;;;;;;5.53;1.38;;;;;;;19.00;63.48;96920.19;5043366;28;20067;-78
2023/08/03 07:35:39;;;;;;;7.30;1.30;;;;;;;19.12;64.45;96944.84;4996838;28;20041;-81
2023/08/03 07:38:05;;;;;;;5.10;1.20;;;;;;;19.19;63.64;96945.13;5063509;28;20068;-80
2023/08/03 07:40:30;;;;;;;4.32;1.10;;;;;;;18.98;63.87;96933.38;5022221;28;20048;-79
2023/08/03 07:42:55;;;;;;;4.47;1.10;;;;;;;18.86;62.84;96905.16;5029955;28;20033;-79
2023/08/03 07:45:21;;;;;;;3.70;1.02;;;;;;;18.93;63.74;96960.84;5024996;28;20498;-79
2023/08/03 07:47:46;;;;;;;6.82;1.38;;;;;;;19.13;64.15;96954.66;5006277;28;20091;-79
2023/08/03 07:50:12;;;;;;;4.70;1.52;;;;;;;19.01;63.80;96938.19;5028691;28;20020;-80
2023/08/03 07:52:38;;;;;;;4.10;1.00;;;;;;;19.04;63.37;96948.41;4996878;28;20060;-78
2023/08/03 07:55:04;;;;;;;6.50;1.20;;;;;;;19.04;63.38;96958.56;5034652;28;20032;-80
2023/08/03 07:57:30;;;;;;;5.97;1.65;;;;;;;19.28;62.42;96970.44;5006880;28;20033;-80
2023/08/03 07:59:55;;;;;;;3.90;0.82;;;;;;;19.21;62.95;96970.16;5004294;28;20245;-80
2023/08/03 08:02:22;;;;;;;5.55;1.35;;;;;;;19.47;61.57;96966.50;5004247;28;20045;-79
2023/08/03 08:04:50;;;;;;;3.22;1.00;;;;;;;19.76;61.82;96963.72;5016791;28;20025;-79
2023/08/03 08:07:15;;;;;;;3.90;1.20;;;;;;;19.51;61.78;96948.34;5010115;28;20040;-79
2023/08/03 08:09:41;;;;;;;2.55;1.00;;;;;;;19.93;61.71;96969.03;5028188;28;20021;-78
2023/08/03 08:12:06;;;;;;;3.95;1.05;;;;;;;19.98;61.36;96955.97;5033807;28;20033;-79
2023/08/03 08:14:32;;;;;;;4.82;1.02;;;;;;;20.17;60.58;96985.56;4987613;28;20479;-80
2023/08/03 08:16:57;;;;;;;4.60;1.30;;;;;;;20.10;58.82;96979.84;5017228;28;20047;-78
2023/08/03 08:19:23;;;;;;;3.58;1.17;;;;;;;19.99;59.71;96945.84;5016671;28;20025;-80
2023/08/03 08:21:48;;;;;;;4.40;1.02;;;;;;;20.28;58.68;96961.38;5016810;28;20056;-79
2023/08/03 08:24:13;;;;;;;3.63;0.90;;;;;;;20.03;58.37;96968.66;5038567;28;20056;-80
2023/08/03 08:26:39;;;;;;;5.35;1.00;;;;;;;19.28;58.77;96937.69;4994160;28;20032;-80
2023/08/03 08:29:04;;;;;;;2.38;0.77;;;;;;;19.54;59.68;96948.47;5027698;28;20048;-80
2023/08/03 08:31:30;;;;;;;3.70;0.93;;;;;;;19.39;60.32;96975.56;5000284;28;20093;-79
2023/08/03 08:33:55;;;;;;;1.50;0.77;;;;;;;19.35;59.18;96980.06;5003087;28;20025;-80
2023/08/03 08:36:20;;;;;;;2.88;1.13;;;;;;;19.43;60.21;96992.88;4985089;28;20026;-81
2023/08/03 08:38:46;;;;;;;4.38;0.90;;;;;;;19.28;60.82;96970.44;5019395;28;20464;-80
2023/08/03 08:41:11;;;;;;;3.30;0.90;;;;;;;19.30;60.33;97011.06;4996638;28;20037;-80
2023/08/03 08:43:39;;;;;;;5.18;1.30;;;;;;;19.24;60.74;96987.81;5019685;28;20025;-81
2023/08/03 08:46:05;;;;;;;3.45;1.00;;;;;;;19.40;60.83;96999.00;5008365;28;20045;-81
2023/08/03 08:48:30;;;;;;;2.47;1.00;;;;;;;19.19;61.50;97016.09;5008657;28;20044;-81
2023/08/03 08:50:59;;;;;;;3.83;1.23;;;;;;;19.29;61.37;97032.13;5016601;28;20088;-81
2023/08/03 08:53:24;;;;;;;3.22;1.05;;;;;;;19.17;61.51;97023.81;5011835;28;20021;-80
2023/08/03 08:55:50;;;;;;;2.60;0.90;;;;;;;19.17;61.62;97023.81;5017405;28;20058;-81
2023/08/03 08:58:16;;;;;;;2.67;0.98;;;;;;;19.10;62.05;97006.34;5007828;28;20064;-78
2023/08/03 09:00:43;;;;;;;2.08;0.80;;;;;;;19.06;61.21;96999.97;5010939;28;20071;-80
2023/08/03 09:03:09;;;;;;;7.28;1.30;;;;;;;19.33;61.96;97046.72;5041232;28;20108;-81
2023/08/03 09:05:36;;;;;;;6.57;1.13;;;;;;;19.22;61.85;97031.84;5005982;28;20067;-81
2023/08/03 09:08:11;;;;;;;2.50;0.85;;;;;;;19.12;61.54;97062.22;5007169;28;20027;-82
2023/08/03 09:10:54;;;;;;;1.98;0.68;;;;;;;19.03;62.15;97061.44;5022337;28;20037;-79
2023/08/03 09:13:37;;;;;;;2.72;0.98;;;;;;;18.73;62.19;97057.03;5007738;28;20044;-80
2023/08/03 09:16:03;;;;;;;6.63;1.10;;;;;;;18.95;62.54;97065.00;5001596;28;20117;-79
2023/08/03 09:18:30;;;;;;;1.52;0.90;;;;;;;18.96;62.89;97055.69;5003019;28;20618;-81
2023/08/03 09:21:32;;;;;;;5.80;1.30;;;;;;;18.87;62.55;97052.19;5010631;28;20037;-81
2023/08/03 09:23:59;;;;;;;2.83;0.82;;;;;;;19.12;61.46;97059.47;4939889;29;20054;-81
2023/08/03 09:26:25;;;;;;;2.78;1.38;;;;;;;18.95;62.68;97028.75;5037785;28;20128;-81
2023/08/03 09:28:51;;;;;;;4.82;1.48;;;;;;;19.00;62.44;97062.09;5047109;28;20076;-80
2023/08/03 09:31:25;;;;;;;5.20;1.35;;;;;;;19.27;62.27;97049.97;5005059;28;20029;-79
2023/08/03 09:33:56;;;;;;;2.63;0.70;;;;;;;19.16;61.80;97076.81;5039274;28;20044;-81
2023/08/03 09:36:21;;;;;;;2.17;0.85;;;;;;;19.40;61.29;97075.44;5006267;28;20088;-81
2023/08/03 09:38:46;;;;;;;3.22;1.15;;;;;;;19.20;61.96;97045.00;5027352;28;20081;-79
2023/08/03 09:41:12;;;;;;;4.25;0.88;;;;;;;19.21;62.28;97062.97;4999552;28;20076;-81
2023/08/03 09:43:39;;;;;;;3.05;0.88;;;;;;;19.29;63.00;97059.44;5002338;28;20025;-81
2023/08/03 09:46:05;;;;;;;3.10;0.93;;;;;;;19.58;62.12;97063.34;4986638;28;20039;-81
2023/08/03 09:48:31;;;;;;;2.65;0.90;;;;;;;19.40;61.65;97064.53;5016683;28;20021;-80
2023/08/03 09:50:58;;;;;;;3.25;0.90;;;;;;;19.44;61.74;97062.75;5008222;28;20068;-80
2023/08/03 09:53:25;;;;;;;3.80;0.95;;;;;;;19.51;61.46;97077.47;5010361;28;20025;-80
2023/08/03 09:55:58;;;;;;;3.35;1.05;;;;;;;19.49;61.27;97085.22;5014667;28;20037;-80
2023/08/03 09:58:45;;;;;;;6.72;1.10;;;;;;;19.37;61.21;97076.13;4998730;28;20064;-80
2023/08/03 10:01:11;;;;;;;2.13;0.95;;;;;;;19.42;60.97;97089.59;5024097;28;20053;-80
2023/08/03 10:03:38;;;;;;;2.53;0.70;;;;;;;19.48;61.36;97101.94;5013946;28;20029;-79
2023/08/03 10:06:11;;;;;;;4.22;0.93;;;;;;;19.17;61.92;97086.59;5017549;28;20048;-81
2023/08/03 10:08:44;;;;;;;5.10;1.10;;;;;;;19.40;61.66;97114.50;4995851;28;20037;-80
2023/08/03 10:11:11;;;;;;;1.90;0.73;;;;;;;19.38;61.48;97114.03;5029205;28;20086;-79
2023/08/03 10:13:49;;;;;;;3.90;1.17;;;;;;;19.06;61.70;97093.56;5033483;28;20534;-81
2023/08/03 10:16:15;;;;;;;1.80;0.90;;;;;;;19.35;61.43;97116.59;5027450;28;20033;-80
2023/08/03 10:18:42;;;;;;;4.05;1.00;;;;;;;19.17;61.96;97100.25;4988191;28;20076;-79
2023/08/03 10:21:08;;;;;;;1.67;0.80;;;;;;;19.05;61.82;97119.22;5007664;28;20037;-81
2023/08/03 10:23:38;;;;;;;2.03;0.80;;;;;;;19.16;62.49;97114.25;4997815;28;20063;-81
2023/08/03 10:26:04;;;;;;;2.40;0.90;;;;;;;19.26;62.03;97144.69;5002250;28;20033;-80
2023/08/03 10:28:38;;;;;;;4.30;1.10;;;;;;;19.18;62.51;97133.81;4999910;28;20051;-79
2023/08/03 10:31:04;;;;;;;4.13;1.00;;;;;;;19.32;62.50;97139.88;5028230;28;20041;-79
2023/08/03 10:33:51;;;;;;;4.85;1.17;;;;;;;19.31;62.43;97143.72;5027895;28;20185;-78
2023/08/03 10:36:28;;;;;;;2.88;1.17;;;;;;;19.31;62.70;97139.06;5031918;28;20057;-81
2023/08/03 10:39:04;;;;;;;2.97;1.00;;;;;;;19.44;60.87;97144.69;5042601;28;20043;-80
2023/08/03 10:41:36;;;;;;;2.75;0.90;;;;;;;19.25;61.94;97140.34;5027754;28;20037;-77
2023/08/03 10:44:09;;;;;;;2.92;0.80;;;;;;;19.40;61.98;97147.25;5025792;28;20160;-79
2023/08/03 10:46:41;;;;;;;1.92;0.90;;;;;;;19.40;61.95;97151.91;5020828;28;20048;-81
2023/08/03 10:49:27;;;;;;;2.25;0.70;;;;;;;19.41;61.68;97148.06;5001872;28;20064;-82
2023/08/03 10:51:55;;;;;;;2.30;0.80;;;;;;;19.38;62.10;97135.06;4997380;28;20041;-81
2023/08/03 10:54:27;;;;;;;1.98;0.70;;;;;;;19.44;62.32;97123.63;4989492;28;20385;-81
2023/08/03 10:57:09;;;;;;;3.40;0.95;;;;;;;19.42;61.90;97155.13;4990134;28;20144;-80
2023/08/03 10:59:49;;;;;;;2.70;0.70;;;;;;;19.56;60.99;97150.25;5015633;28;20034;-78
2023/08/03 11:02:26;;;;;;;2.45;0.80;;;;;;;19.42;61.46;97146.94;4990009;28;20037;-80
2023/08/03 11:05:03;;;;;;;2.22;0.80;;;;;;;19.61;61.19;97158.25;5028355;28;20091;-80
2023/08/03 11:07:33;;;;;;;2.00;0.60;;;;;;;19.80;60.80;97139.53;5026116;28;20029;-77
2023/08/03 11:10:04;;;;;;;3.33;0.70;;;;;;;19.74;60.41;97154.53;5034296;28;20029;-78
2023/08/03 11:12:29;;;;;;;2.63;0.70;;;;;;;19.68;60.69;97153.91;5031474;28;20041;-80
2023/08/03 11:14:56;;;;;;;1.27;0.50;;;;;;;19.64;60.78;97158.41;5005756;28;20022;-80
2023/08/03 11:17:29;;;;;;;2.20;0.90;;;;;;;19.69;60.82;97150.03;5043726;28;20489;-80
2023/08/03 11:19:55;;;;;;;2.63;0.70;;;;;;;19.84;61.08;97141.28;5000734;28;20091;-79
2023/08/03 11:22:21;;;;;;;3.50;0.80;;;;;;;19.79;60.90;97127.03;5026710;28;20025;-79
2023/08/03 11:24:48;;;;;;;1.60;0.65;;;;;;;19.58;61.19;97115.22;5005988;28;20525;-77
2023/08/03 11:27:14;;;;;;;1.55;0.68;;;;;;;19.66;61.13;97123.38;4996957;28;20025;-81
2023/08/03 11:29:39;;;;;;;1.48;0.70;;;;;;;19.68;60.43;97142.16;5028000;28;20494;-78
2023/08/03 11:32:05;;;;;;;3.42;0.70;;;;;;;19.54;61.08;97157.97;5028412;28;20049;-81
2023/08/03 11:34:31;;;;;;;2.45;0.63;;;;;;;19.65;61.57;97172.88;5002642;28;20128;-79
2023/08/03 11:36:56;;;;;;;3.58;0.70;;;;;;;19.61;61.53;97120.81;5013544;28;20033;-80
2023/08/03 11:39:22;;;;;;;2.45;0.60;;;;;;;19.70;61.53;97164.47;5005448;28;20127;-80